createdAt,value
2023-05-06T00:00:52.874Z,14.56
2023-05-06T00:03:19.206Z,14.71
2023-05-06T00:05:45.534Z,14.77
2023-05-06T00:08:11.765Z,14.69
2023-05-06T00:10:38.009Z,14.65
2023-05-06T00:13:04.282Z,14.55
2023-05-06T00:15:32.131Z,14.60
2023-05-06T00:17:58.594Z,14.64
2023-05-06T00:20:24.845Z,14.63
2023-05-06T00:22:51.080Z,14.64
2023-05-06T00:25:17.332Z,14.64
2023-05-06T00:27:43.592Z,14.65
2023-05-06T00:30:09.930Z,14.68
2023-05-06T00:32:36.288Z,14.70
2023-05-06T00:35:02.577Z,14.74
2023-05-06T00:37:28.848Z,14.78
2023-05-06T00:39:55.116Z,14.73
2023-05-06T00:42:21.400Z,14.77
2023-05-06T00:44:47.663Z,14.81
2023-05-06T00:47:16.609Z,14.77
2023-05-06T00:49:42.851Z,14.75
2023-05-06T00:52:09.101Z,14.73
2023-05-06T00:54:35.374Z,14.73
2023-05-06T00:57:01.700Z,14.74
2023-05-06T00:59:27.957Z,14.75
2023-05-06T01:01:54.225Z,14.75
2023-05-06T01:04:20.509Z,14.70
2023-05-06T01:06:46.747Z,14.73
2023-05-06T01:09:13.003Z,14.73
2023-05-06T01:11:39.261Z,14.71
2023-05-06T01:14:05.486Z,14.72
2023-05-06T01:16:31.764Z,14.70
2023-05-06T01:18:58.024Z,14.63
2023-05-06T01:21:24.316Z,14.57
2023-05-06T01:23:50.548Z,14.54
2023-05-06T01:26:16.799Z,14.46
2023-05-06T01:28:43.091Z,14.39
2023-05-06T01:31:09.411Z,14.35
2023-05-06T01:33:35.811Z,14.38
2023-05-06T01:36:02.082Z,14.24
2023-05-06T01:38:28.333Z,14.20
2023-05-06T01:40:54.633Z,14.24
2023-05-06T01:43:20.872Z,14.20
2023-05-06T01:45:47.186Z,14.00
2023-05-06T01:48:13.441Z,13.91
2023-05-06T01:50:39.679Z,13.72
2023-05-06T01:53:05.950Z,13.72
2023-05-06T01:55:32.242Z,13.62
2023-05-06T01:57:58.519Z,13.59
2023-05-06T02:00:24.784Z,13.58
2023-05-06T02:02:51.109Z,13.48
2023-05-06T02:05:17.469Z,13.52
2023-05-06T02:07:43.978Z,13.58
2023-05-06T02:10:10.277Z,13.69
2023-05-06T02:12:36.576Z,13.75
2023-05-06T02:15:02.828Z,13.81
2023-05-06T02:17:29.088Z,13.70
2023-05-06T02:19:55.368Z,13.67
2023-05-06T02:22:21.623Z,13.71
2023-05-06T02:24:47.858Z,13.79
2023-05-06T02:27:14.090Z,13.83
2023-05-06T02:29:40.353Z,13.87
2023-05-06T02:32:06.609Z,13.92
2023-05-06T02:34:32.847Z,13.90
2023-05-06T02:36:59.144Z,13.93
2023-05-06T02:39:25.485Z,13.91
2023-05-06T02:41:51.788Z,13.92
2023-05-06T02:44:18.029Z,13.93
2023-05-06T02:46:44.332Z,13.93
2023-05-06T02:49:10.595Z,13.92
2023-05-06T02:51:36.883Z,13.89
2023-05-06T02:54:03.139Z,13.81
2023-05-06T02:56:29.434Z,13.82
2023-05-06T02:58:55.690Z,13.83
2023-05-06T03:01:22.025Z,13.95
2023-05-06T03:03:48.307Z,13.96
2023-05-06T03:06:14.589Z,13.99
2023-05-06T03:08:40.822Z,13.92
2023-05-06T03:11:08.279Z,13.92
2023-05-06T03:13:34.655Z,13.82
2023-05-06T03:16:00.943Z,13.82
2023-05-06T03:18:27.199Z,13.88
2023-05-06T03:20:53.480Z,13.88
2023-05-06T03:23:19.756Z,13.93
2023-05-06T03:25:46.059Z,13.95
2023-05-06T03:28:12.309Z,14.06
2023-05-06T03:30:38.577Z,14.07
2023-05-06T03:33:04.901Z,13.99
2023-05-06T03:35:31.238Z,13.92
2023-05-06T03:37:57.485Z,13.90
2023-05-06T03:40:23.760Z,13.87
2023-05-06T03:42:50.102Z,13.93
2023-05-06T03:45:16.351Z,14.01
2023-05-06T03:47:42.615Z,14.02
2023-05-06T03:50:08.895Z,13.97
2023-05-06T03:52:35.164Z,13.96
2023-05-06T03:55:01.414Z,14.04
2023-05-06T03:57:27.647Z,14.08
2023-05-06T03:59:53.934Z,14.14
2023-05-06T04:02:20.267Z,14.17
2023-05-06T04:04:46.566Z,14.14
2023-05-06T04:07:12.849Z,14.17
2023-05-06T04:09:39.088Z,14.18
2023-05-06T04:12:05.343Z,14.13
2023-05-06T04:14:31.625Z,14.07
2023-05-06T04:16:57.921Z,14.00
2023-05-06T04:19:24.199Z,13.88
2023-05-06T04:21:50.542Z,13.71
2023-05-06T04:24:16.825Z,13.67
2023-05-06T04:26:43.081Z,13.67
2023-05-06T04:29:09.387Z,13.62
2023-05-06T04:31:35.729Z,13.63
2023-05-06T04:34:01.988Z,13.67
2023-05-06T04:36:28.248Z,13.68
2023-05-06T04:38:54.519Z,13.68
2023-05-06T04:41:20.802Z,13.68
2023-05-06T04:43:47.037Z,13.74
2023-05-06T04:46:13.335Z,13.70
2023-05-06T04:48:39.695Z,13.67
2023-05-06T04:51:06.099Z,13.69
2023-05-06T04:53:32.397Z,13.67
2023-05-06T04:55:58.653Z,13.60
2023-05-06T04:58:24.885Z,13.55
2023-05-06T05:00:51.211Z,13.42
2023-05-06T05:03:17.679Z,13.43
2023-05-06T05:05:43.978Z,13.44
2023-05-06T05:08:10.212Z,13.42
2023-05-06T05:10:36.455Z,13.43
2023-05-06T05:13:02.766Z,13.40
2023-05-06T05:15:29.136Z,13.33
2023-05-06T05:17:55.407Z,13.37
2023-05-06T05:20:21.678Z,13.47
2023-05-06T05:22:47.924Z,13.57
2023-05-06T05:25:14.547Z,13.70
2023-05-06T05:27:41.091Z,13.86
2023-05-06T05:30:07.379Z,13.93
2023-05-06T05:32:33.646Z,13.94
2023-05-06T05:34:59.946Z,13.88
2023-05-06T05:37:26.212Z,13.86
2023-05-06T05:39:52.481Z,13.90
2023-05-06T05:42:18.825Z,13.86
2023-05-06T05:44:45.118Z,13.84
2023-05-06T05:47:11.381Z,13.77
2023-05-06T05:49:37.644Z,13.71
2023-05-06T05:52:03.946Z,13.64
2023-05-06T05:54:30.223Z,13.65
2023-05-06T05:56:56.528Z,13.68
2023-05-06T05:59:22.813Z,13.74
2023-05-06T06:01:49.160Z,13.84
2023-05-06T06:04:15.429Z,13.83
2023-05-06T06:06:41.700Z,13.80
2023-05-06T06:09:07.957Z,13.71
2023-05-06T06:11:34.207Z,13.68
2023-05-06T06:14:00.472Z,13.60
2023-05-06T06:16:26.773Z,13.69
2023-05-06T06:18:53.096Z,13.76
2023-05-06T06:21:19.383Z,13.79
2023-05-06T06:23:45.658Z,13.94
2023-05-06T06:26:12.421Z,14.02
2023-05-06T06:28:38.808Z,14.16
2023-05-06T06:31:05.129Z,14.31
2023-05-06T06:33:31.435Z,14.49
2023-05-06T06:35:57.673Z,14.65
2023-05-06T06:38:24.094Z,14.65
2023-05-06T06:40:50.391Z,14.83
2023-05-06T06:43:16.673Z,14.85
2023-05-06T06:45:43.008Z,14.88
2023-05-06T06:48:09.339Z,14.97
2023-05-06T06:50:35.648Z,14.97
2023-05-06T06:53:03.116Z,15.00
2023-05-06T06:55:31.076Z,15.04
2023-05-06T06:57:57.307Z,15.21
2023-05-06T07:00:23.560Z,15.16
2023-05-06T07:02:49.888Z,15.22
2023-05-06T07:05:16.196Z,15.37
2023-05-06T07:07:42.474Z,15.44
2023-05-06T07:10:08.763Z,15.54
2023-05-06T07:12:35.131Z,15.63
2023-05-06T07:15:01.497Z,15.73
2023-05-06T07:17:27.765Z,15.65
2023-05-06T07:19:54.029Z,15.64
2023-05-06T07:22:20.317Z,15.82
2023-05-06T07:24:46.598Z,15.90
2023-05-06T07:27:12.862Z,15.76
2023-05-06T07:29:39.102Z,15.67
2023-05-06T07:32:05.372Z,15.53
2023-05-06T07:34:31.623Z,15.79
2023-05-06T07:36:57.898Z,15.94
2023-05-06T07:39:24.214Z,15.99
2023-05-06T07:41:50.466Z,16.23
2023-05-06T07:44:16.739Z,16.31
2023-05-06T07:46:43.186Z,16.43
2023-05-06T07:49:09.526Z,16.62
2023-05-06T07:51:35.771Z,16.67
2023-05-06T07:54:02.025Z,16.72
2023-05-06T07:56:28.305Z,16.93
2023-05-06T07:58:54.561Z,17.04
2023-05-06T08:01:20.862Z,17.21
2023-05-06T08:03:47.338Z,17.01
2023-05-06T08:06:13.724Z,17.10
2023-05-06T08:08:39.989Z,17.25
2023-05-06T08:11:06.245Z,17.12
2023-05-06T08:13:32.485Z,16.96
2023-05-06T08:15:58.857Z,17.19
2023-05-06T08:18:25.178Z,17.45
2023-05-06T08:20:51.518Z,17.60
2023-05-06T08:23:17.856Z,17.59
2023-05-06T08:25:44.107Z,17.74
2023-05-06T08:28:10.393Z,17.76
2023-05-06T08:30:36.788Z,17.92
2023-05-06T08:33:03.225Z,17.94
2023-05-06T08:35:29.559Z,17.62
2023-05-06T08:37:55.827Z,17.51
2023-05-06T08:40:22.200Z,17.82
2023-05-06T08:42:48.668Z,18.05
2023-05-06T08:45:14.945Z,18.06
2023-05-06T08:47:41.204Z,18.17
2023-05-06T08:50:07.545Z,18.34
2023-05-06T08:52:33.934Z,18.53
2023-05-06T08:55:00.243Z,18.66
2023-05-06T08:57:26.516Z,18.85
2023-05-06T08:59:52.769Z,18.97
2023-05-06T09:02:19.097Z,19.06
2023-05-06T09:04:45.530Z,19.09
2023-05-06T09:07:11.825Z,19.29
2023-05-06T09:09:38.098Z,19.43
2023-05-06T09:12:04.381Z,19.63
2023-05-06T09:14:30.678Z,19.78
2023-05-06T09:16:56.980Z,19.87
2023-05-06T09:19:23.341Z,19.96
2023-05-06T09:21:49.690Z,19.80
2023-05-06T09:24:15.945Z,19.84
2023-05-06T09:26:42.196Z,20.04
2023-05-06T09:29:08.446Z,20.24
2023-05-06T09:31:34.751Z,20.37
2023-05-06T09:34:01.061Z,20.28
2023-05-06T09:36:27.352Z,20.51
2023-05-06T09:38:53.623Z,20.69
2023-05-06T09:41:19.876Z,20.54
2023-05-06T09:43:46.141Z,20.34
2023-05-06T09:46:12.439Z,20.66
2023-05-06T09:48:38.713Z,20.80
2023-05-06T09:51:05.049Z,21.01
2023-05-06T09:53:31.356Z,21.08
2023-05-06T09:55:57.642Z,21.09
2023-05-06T09:58:23.897Z,20.86
2023-05-06T10:00:50.146Z,21.09
2023-05-06T10:03:16.574Z,20.88
2023-05-06T10:05:42.912Z,20.81
2023-05-06T10:08:09.195Z,20.54
2023-05-06T10:10:35.451Z,20.80
2023-05-06T10:13:01.768Z,20.92
2023-05-06T10:15:28.111Z,21.02
2023-05-06T10:17:54.391Z,21.11
2023-05-06T10:20:20.718Z,21.15
2023-05-06T10:22:46.968Z,21.33
2023-05-06T10:25:13.237Z,21.24
2023-05-06T10:27:39.492Z,21.44
2023-05-06T10:30:06.081Z,21.20
2023-05-06T10:32:32.402Z,21.37
2023-05-06T10:34:58.664Z,21.61
2023-05-06T10:37:24.895Z,21.91
2023-05-06T10:39:51.147Z,21.97
2023-05-06T10:42:17.391Z,21.95
2023-05-06T10:44:46.050Z,21.69
2023-05-06T10:47:12.445Z,21.72
2023-05-06T10:49:38.686Z,21.82
2023-05-06T10:52:04.926Z,21.55
2023-05-06T10:54:31.174Z,21.66
2023-05-06T10:56:57.488Z,21.98
2023-05-06T10:59:23.756Z,22.02
2023-05-06T11:01:50.008Z,21.95
2023-05-06T11:04:16.254Z,22.23
2023-05-06T11:06:42.492Z,22.27
2023-05-06T11:09:08.753Z,22.47
2023-05-06T11:11:34.999Z,22.53
2023-05-06T11:14:01.491Z,22.49
2023-05-06T11:16:27.782Z,22.35
2023-05-06T11:18:54.047Z,22.32
2023-05-06T11:21:20.317Z,22.74
2023-05-06T11:23:46.645Z,22.85
2023-05-06T11:26:12.995Z,23.09
2023-05-06T11:28:39.232Z,23.07
2023-05-06T11:31:05.558Z,23.03
2023-05-06T11:33:31.910Z,22.86
2023-05-06T11:35:58.185Z,22.96
2023-05-06T11:38:24.496Z,22.65
2023-05-06T11:40:50.744Z,22.79
2023-05-06T11:43:16.992Z,23.03
2023-05-06T11:45:43.242Z,23.00
2023-05-06T11:48:09.551Z,23.41
2023-05-06T11:50:35.874Z,23.33
2023-05-06T11:53:02.132Z,23.26
2023-05-06T11:55:28.381Z,23.03
2023-05-06T11:57:54.689Z,22.95
2023-05-06T12:00:21.004Z,22.90
2023-05-06T12:02:47.345Z,22.23
2023-05-06T12:05:13.675Z,22.46
2023-05-06T12:07:39.995Z,22.70
2023-05-06T12:10:06.238Z,23.05
2023-05-06T12:12:32.495Z,23.00
2023-05-06T12:14:58.738Z,23.24
2023-05-06T12:17:25.073Z,23.45
2023-05-06T12:19:51.429Z,23.71
2023-05-06T12:22:17.717Z,23.53
2023-05-06T12:24:43.972Z,23.94
2023-05-06T12:27:10.237Z,24.05
2023-05-06T12:29:36.477Z,24.16
2023-05-06T12:32:02.829Z,24.45
2023-05-06T12:34:29.150Z,24.61
2023-05-06T12:36:55.412Z,24.87
2023-05-06T12:39:22.883Z,24.34
2023-05-06T12:41:49.149Z,24.54
2023-05-06T12:44:15.409Z,24.72
2023-05-06T12:46:41.653Z,24.79
2023-05-06T12:49:07.906Z,25.21
2023-05-06T12:51:34.223Z,25.04
2023-05-06T12:54:00.525Z,25.28
2023-05-06T12:56:26.772Z,25.40
2023-05-06T12:58:53.010Z,25.32
2023-05-06T13:01:19.286Z,25.87
2023-05-06T13:03:45.590Z,25.91
2023-05-06T13:06:11.858Z,25.51
2023-05-06T13:08:38.108Z,25.33
2023-05-06T13:11:04.359Z,25.59
2023-05-06T13:13:30.628Z,25.38
2023-05-06T13:15:56.864Z,25.57
2023-05-06T13:18:23.227Z,25.35
2023-05-06T13:20:49.536Z,25.30
2023-05-06T13:23:15.819Z,25.17
2023-05-06T13:25:52.044Z,25.07
2023-05-06T13:28:22.489Z,24.97
2023-05-06T13:30:48.791Z,24.67
2023-05-06T13:33:15.114Z,24.59
2023-05-06T13:35:41.404Z,24.37
2023-05-06T13:38:07.684Z,24.64
2023-05-06T13:40:33.928Z,24.60
2023-05-06T13:43:00.209Z,24.46
2023-05-06T13:45:26.614Z,24.55
2023-05-06T13:47:53.009Z,24.13
2023-05-06T13:50:19.355Z,23.96
2023-05-06T13:52:45.603Z,23.90
2023-05-06T13:55:12.109Z,23.90
2023-05-06T13:57:38.587Z,23.97
2023-05-06T14:00:04.928Z,24.35
2023-05-06T14:02:31.251Z,24.47
2023-05-06T14:04:57.590Z,24.39
2023-05-06T14:07:23.868Z,24.56
2023-05-06T14:09:50.136Z,24.33
2023-05-06T14:12:16.425Z,24.47
2023-05-06T14:14:42.688Z,24.37
2023-05-06T14:17:08.945Z,24.37
2023-05-06T14:19:35.220Z,24.57
2023-05-06T14:22:01.461Z,24.58
2023-05-06T14:24:27.692Z,24.80
2023-05-06T14:26:54.003Z,24.67
2023-05-06T14:29:20.291Z,24.68
2023-05-06T14:31:46.570Z,24.92
2023-05-06T14:34:12.875Z,24.53
2023-05-06T14:36:39.195Z,24.30
2023-05-06T14:39:05.420Z,23.88
2023-05-06T14:41:31.666Z,23.99
2023-05-06T14:43:57.942Z,23.93
2023-05-06T14:46:24.945Z,23.83
2023-05-06T14:48:52.816Z,24.13
2023-05-06T14:51:19.059Z,24.47
2023-05-06T14:53:45.334Z,24.44
2023-05-06T14:56:11.636Z,24.22
2023-05-06T14:58:37.927Z,24.47
2023-05-06T15:01:04.191Z,24.41
2023-05-06T15:03:30.509Z,24.41
2023-05-06T15:05:56.922Z,24.14
2023-05-06T15:08:23.264Z,23.79
2023-05-06T15:10:49.518Z,23.76
2023-05-06T15:13:15.817Z,23.87
2023-05-06T15:15:42.048Z,23.81
2023-05-06T15:18:08.359Z,24.04
2023-05-06T15:20:34.622Z,23.69
2023-05-06T15:23:00.910Z,23.49
2023-05-06T15:25:35.012Z,23.63
2023-05-06T15:28:02.144Z,23.78
2023-05-06T15:30:28.415Z,24.04
2023-05-06T15:32:54.718Z,23.81
2023-05-06T15:35:20.999Z,24.05
2023-05-06T15:37:47.263Z,24.05
2023-05-06T15:40:13.571Z,24.20
2023-05-06T15:42:41.209Z,24.05
2023-05-06T15:45:07.500Z,24.16
2023-05-06T15:47:33.832Z,23.73
2023-05-06T15:50:00.228Z,23.75
2023-05-06T15:52:26.503Z,23.32
2023-05-06T15:54:57.519Z,23.62
2023-05-06T15:57:25.590Z,23.26
2023-05-06T15:59:51.822Z,22.75
2023-05-06T16:04:47.496Z,22.80
2023-05-06T16:07:13.913Z,22.71
2023-05-06T16:09:40.217Z,22.56
2023-05-06T16:12:06.543Z,22.50
2023-05-06T16:14:32.959Z,22.16
2023-05-06T16:16:59.194Z,22.05
2023-05-06T16:19:25.460Z,21.72
2023-05-06T16:21:51.706Z,21.73
2023-05-06T16:24:17.960Z,21.74
2023-05-06T16:26:44.194Z,21.68
2023-05-06T16:29:10.457Z,21.90
2023-05-06T16:31:36.794Z,22.22
2023-05-06T16:34:03.079Z,22.54
2023-05-06T16:36:29.329Z,22.32
2023-05-06T16:38:55.556Z,22.75
2023-05-06T16:41:21.853Z,22.66
2023-05-06T16:43:48.308Z,22.42
2023-05-06T16:46:14.629Z,22.23
2023-05-06T16:48:41.074Z,22.27
2023-05-06T16:51:07.359Z,22.09
2023-05-06T16:53:33.607Z,21.80
2023-05-06T16:55:59.918Z,21.65
2023-05-06T16:58:26.228Z,21.45
2023-05-06T17:00:52.574Z,21.72
2023-05-06T17:03:19.066Z,21.94
2023-05-06T17:05:45.331Z,22.07
2023-05-06T17:08:12.006Z,21.95
2023-05-06T17:10:38.372Z,22.09
2023-05-06T17:13:04.704Z,22.02
2023-05-06T17:15:30.959Z,21.87
2023-05-06T17:17:57.291Z,21.83
2023-05-06T17:20:23.597Z,21.80
2023-05-06T17:22:49.860Z,21.73
2023-05-06T17:25:16.112Z,21.73
2023-05-06T17:27:42.346Z,21.76
2023-05-06T17:30:08.930Z,21.80
2023-05-06T17:32:35.509Z,21.66
2023-05-06T17:35:01.810Z,21.29
2023-05-06T17:37:28.168Z,21.32
2023-05-06T17:39:54.532Z,21.27
2023-05-06T17:42:20.849Z,21.05
2023-05-06T17:44:47.118Z,20.48
2023-05-06T17:47:13.349Z,20.60
2023-05-06T17:49:39.622Z,20.57
2023-05-06T17:52:05.901Z,20.53
2023-05-06T17:54:32.131Z,20.48
2023-05-06T17:56:58.411Z,20.46
2023-05-06T17:59:26.193Z,20.40
2023-05-06T18:01:52.620Z,20.38
2023-05-06T18:04:18.975Z,20.38
2023-05-06T18:06:45.271Z,20.35
2023-05-06T18:09:11.760Z,20.27
2023-05-06T18:11:38.048Z,20.18
2023-05-06T18:14:04.274Z,20.09
2023-05-06T18:16:30.631Z,19.90
2023-05-06T18:18:58.910Z,19.71
2023-05-06T18:21:25.212Z,19.76
2023-05-06T18:23:55.704Z,19.76
2023-05-06T18:26:39.769Z,19.72
2023-05-06T18:29:09.371Z,19.66
2023-05-06T18:31:35.734Z,19.31
2023-05-06T18:34:02.040Z,19.16
2023-05-06T18:36:28.282Z,19.22
2023-05-06T18:38:54.595Z,19.20
2023-05-06T18:41:20.837Z,19.09
2023-05-06T18:43:47.142Z,19.06
2023-05-06T18:46:13.533Z,18.97
2023-05-06T18:48:39.885Z,18.88
2023-05-06T18:51:06.245Z,18.81
2023-05-06T18:53:32.477Z,18.69
2023-05-06T18:55:58.741Z,18.64
2023-05-06T18:58:25.051Z,18.52
2023-05-06T19:00:51.400Z,18.45
2023-05-06T19:03:17.831Z,18.41
2023-05-06T19:05:44.145Z,18.34
2023-05-06T19:08:10.423Z,18.19
2023-05-06T19:10:36.718Z,18.14
2023-05-06T19:13:03.020Z,18.12
2023-05-06T19:15:29.273Z,18.07
2023-05-06T19:17:55.538Z,18.01
2023-05-06T19:20:21.790Z,17.84
2023-05-06T19:22:48.025Z,17.85
2023-05-06T19:25:14.305Z,17.89
2023-05-06T19:27:40.530Z,17.90
2023-05-06T19:30:06.797Z,17.97
2023-05-06T19:32:33.218Z,17.98
2023-05-06T19:34:59.528Z,17.91
2023-05-06T19:37:25.784Z,17.89
2023-05-06T19:39:52.023Z,17.84
2023-05-06T19:42:18.277Z,17.82
2023-05-06T19:44:44.542Z,17.72
2023-05-06T19:47:10.795Z,17.52
2023-05-06T19:49:37.094Z,17.39
2023-05-06T19:52:03.348Z,17.43
2023-05-06T19:54:29.612Z,17.40
2023-05-06T19:56:55.877Z,17.43
2023-05-06T19:59:22.131Z,17.39
2023-05-06T20:01:48.416Z,17.41
2023-05-06T20:04:14.669Z,17.48
2023-05-06T20:06:40.948Z,17.53
2023-05-06T20:09:07.237Z,17.50
2023-05-06T20:11:33.548Z,17.33
2023-05-06T20:13:59.805Z,17.33
2023-05-06T20:16:26.120Z,17.23
2023-05-06T20:18:52.440Z,17.07
2023-05-06T20:21:18.751Z,16.90
2023-05-06T20:23:45.049Z,16.90
2023-05-06T20:26:11.292Z,16.87
2023-05-06T20:28:37.545Z,16.82
2023-05-06T20:31:03.799Z,16.74
2023-05-06T20:33:30.097Z,16.66
2023-05-06T20:35:56.375Z,16.55
2023-05-06T20:38:22.631Z,16.52
2023-05-06T20:40:48.865Z,16.48
2023-05-06T20:43:15.097Z,16.43
2023-05-06T20:45:41.371Z,16.35
2023-05-06T20:48:07.868Z,16.23
2023-05-06T20:50:34.205Z,16.16
2023-05-06T20:53:00.479Z,16.04
2023-05-06T20:55:26.747Z,16.00
2023-05-06T20:57:53.111Z,15.92
2023-05-06T21:00:19.402Z,15.84
2023-05-06T21:02:45.685Z,15.73
2023-05-06T21:05:12.234Z,15.64
2023-05-06T21:07:38.792Z,15.66
2023-05-06T21:10:05.053Z,15.65
2023-05-06T21:12:31.337Z,15.60
2023-05-06T21:14:57.620Z,15.53
2023-05-06T21:17:24.128Z,15.53
2023-05-06T21:19:50.487Z,15.50
2023-05-06T21:22:16.747Z,15.45
2023-05-06T21:24:43.050Z,15.40
2023-05-06T21:27:09.298Z,15.37
2023-05-06T21:29:35.552Z,15.23
2023-05-06T21:32:01.820Z,15.21
2023-05-06T21:34:28.098Z,15.20
2023-05-06T21:36:54.367Z,15.16
2023-05-06T21:39:20.621Z,15.10
2023-05-06T21:41:46.914Z,15.08
2023-05-06T21:44:13.180Z,15.06
2023-05-06T21:46:39.479Z,14.96
2023-05-06T21:49:05.736Z,14.88
2023-05-06T21:51:31.998Z,14.84
2023-05-06T21:53:58.229Z,14.89
2023-05-06T21:56:24.491Z,14.95
2023-05-06T21:58:50.751Z,14.97
2023-05-06T22:01:18.212Z,14.97
2023-05-06T22:03:44.629Z,15.04
2023-05-06T22:06:10.939Z,15.06
2023-05-06T22:08:37.196Z,14.98
2023-05-06T22:11:03.462Z,14.86
2023-05-06T22:13:29.776Z,14.83
2023-05-06T22:15:56.216Z,14.85
2023-05-06T22:18:22.507Z,14.85
2023-05-06T22:20:48.760Z,14.85
2023-05-06T22:23:14.994Z,14.77
2023-05-06T22:25:41.288Z,14.83
2023-05-06T22:28:07.516Z,14.81
2023-05-06T22:30:33.785Z,14.85
2023-05-06T22:33:00.077Z,14.82
2023-05-06T22:35:27.090Z,14.77
2023-05-06T22:37:53.344Z,14.85
2023-05-06T22:40:19.588Z,14.83
2023-05-06T22:42:45.836Z,14.88
2023-05-06T22:45:12.321Z,14.91
2023-05-06T22:47:38.863Z,14.91
2023-05-06T22:50:05.172Z,14.91
2023-05-06T22:52:31.408Z,14.84
2023-05-06T22:54:57.668Z,14.74
2023-05-06T22:57:24.057Z,14.70
2023-05-06T22:59:50.360Z,14.64
2023-05-06T23:02:16.621Z,14.66
2023-05-06T23:04:42.908Z,14.71
2023-05-06T23:07:09.149Z,14.78
2023-05-06T23:09:35.396Z,14.76
2023-05-06T23:12:01.668Z,14.74
2023-05-06T23:14:27.954Z,14.77
2023-05-06T23:16:54.271Z,14.77
2023-05-06T23:19:20.554Z,14.71
2023-05-06T23:21:48.732Z,14.77
2023-05-06T23:24:15.004Z,14.87
2023-05-06T23:26:41.249Z,14.91
2023-05-06T23:29:07.527Z,14.97
2023-05-06T23:31:33.894Z,15.02
2023-05-06T23:34:00.166Z,15.10
2023-05-06T23:36:26.483Z,15.07
2023-05-06T23:38:52.746Z,15.11
2023-05-06T23:41:19.011Z,14.99
2023-05-06T23:43:45.320Z,14.91
2023-05-06T23:46:11.578Z,14.87
2023-05-06T23:48:37.861Z,14.90
2023-05-06T23:51:04.165Z,14.96
2023-05-06T23:53:30.420Z,14.94
2023-05-06T23:55:56.725Z,14.98
2023-05-06T23:58:23.023Z,14.85
